Portada
METAR-TAF:

METAR-TAF

Aeropuertos :

Uherské Hradiště, República Checa

latitud: 49-01-46N, longitud: 017-26-23E, altitud: 177 m

Observación

El informe se hizo hace 8 horas y 29 minutos, a las 14:00 UTC
Viento 4 kt del oeste-suroeste
Temperatura 15°C
Humedad 77%
Presión 1015 hPa
Visibilidad 10 km o más
Escasas nubes a una altura de 4500 ft

METAR: LKKU 231400Z 24004KT 9999 FEW045 15/11 Q1015

Hora: 00:29 (22:29 UTC)


TAF: falta

Observaciones y pronósticos meteorológicos de más de 4000 aeropuertos (mensajes METAR y TAF).

Los puntos amarillos y rojos representan las estaciones disponibles.

Ponga el ratón en el punto deseado para ver el nombre de la estación.

Haga clic para ver las observaciones y los pronósticos meteorológicos.

Para cambiar el mapa : haga clic en los botones verdes con una cruz de color negro para hacer un zoom, en el botón verde con un guión para alejar o en las flechas verdes para mapas adyacentes.


METAR-TAF: